Time;durP1;ratioP1;P1;durP2;ratioP2;P2;SDS_P1;SDS_P2;PMS_P1;PMS_P2;Temp;Humidity;BMP_temperature;BMP_pressure;BME280_temperature;BME280_humidity;BME280_pressure;Samples;Min_cycle;Max_cycle;Signal;HPM_P1;HPM_P2
2022/06/16 00:00:42;;;;;;;3.70;1.60;;;;;;;12.19;100.00;99876.52;1713044;82;21019;-66
2022/06/16 00:03:08;;;;;;;2.33;1.47;;;;;;;12.23;100.00;99878.42;1696646;82;21541;-65
2022/06/16 00:05:37;;;;;;;3.60;1.65;;;;;;;12.27;100.00;99878.14;1688247;82;20979;-65
2022/06/16 00:08:06;;;;;;;3.65;1.50;;;;;;;12.28;100.00;99878.41;1697818;82;21053;-65
2022/06/16 00:10:33;;;;;;;3.33;1.80;;;;;;;12.23;100.00;99881.69;1704555;82;21019;-66
2022/06/16 00:13:00;;;;;;;4.10;1.42;;;;;;;12.20;100.00;99883.62;1701878;82;21079;-66
2022/06/16 00:15:29;;;;;;;5.10;1.57;;;;;;;12.18;100.00;99883.09;1715412;82;21005;-66
2022/06/16 00:17:57;;;;;;;3.60;1.70;;;;;;;12.17;100.00;99878.18;1707643;82;21039;-65
2022/06/16 00:20:24;;;;;;;3.75;1.42;;;;;;;12.20;100.00;99870.80;1715303;82;21488;-66
2022/06/16 00:22:51;;;;;;;3.83;1.80;;;;;;;12.21;100.00;99879.27;1707189;82;21577;-66
2022/06/16 00:25:17;;;;;;;3.27;1.60;;;;;;;12.20;100.00;99874.89;1695935;83;21006;-65
2022/06/16 00:27:44;;;;;;;3.05;1.45;;;;;;;12.15;100.00;99874.11;1701161;82;21573;-65
2022/06/16 00:30:12;;;;;;;3.72;1.60;;;;;;;12.09;100.00;99871.10;1654208;85;20983;-66
2022/06/16 00:32:41;;;;;;;3.27;1.40;;;;;;;12.06;100.00;99876.58;1699596;82;21020;-65
2022/06/16 00:35:10;;;;;;;4.20;1.42;;;;;;;12.06;100.00;99876.58;1705939;82;21548;-65
2022/06/16 00:37:36;;;;;;;2.62;1.22;;;;;;;12.06;100.00;99877.13;1708223;82;21022;-65
2022/06/16 00:40:03;;;;;;;;;;;;;;;12.05;100.00;99873.57;1702586;82;20981;-65
2022/06/16 00:42:29;;;;;;;3.08;1.30;;;;;;;12.03;100.00;99873.05;1701126;82;20138;-65
2022/06/16 00:44:57;;;;;;;3.92;1.57;;;;;;;11.90;100.00;99877.16;1675178;84;20976;-66
2022/06/16 00:47:27;;;;;;;2.77;1.65;;;;;;;11.86;100.00;99878.83;1705528;82;21047;-65
2022/06/16 00:49:55;;;;;;;3.12;1.60;;;;;;;11.84;100.00;99877.45;1672977;84;21445;-65
2022/06/16 00:52:29;;;;;;;3.85;1.47;;;;;;;11.87;100.00;99890.53;1708211;82;21547;-66
2022/06/16 00:55:06;;;;;;;4.37;1.30;;;;;;;11.87;100.00;99887.27;1682818;84;21582;-66
2022/06/16 00:57:41;;;;;;;3.50;1.35;;;;;;;11.89;100.00;99887.00;1700064;82;21633;-66
2022/06/16 01:02:57;;;;;;;3.30;1.40;;;;;;;11.80;100.00;99891.36;1639680;85;21028;-66
2022/06/16 01:05:23;;;;;;;3.17;1.50;;;;;;;11.78;100.00;99894.93;1653670;85;21008;-66
2022/06/16 01:07:50;;;;;;;5.22;1.32;;;;;;;11.80;100.00;99887.27;1705664;82;21027;-66
2022/06/16 01:10:17;;;;;;;2.35;1.45;;;;;;;11.84;100.00;99887.00;1672009;84;21086;-66
2022/06/16 01:16:24;;;;;;;3.35;1.70;;;;;;;11.80;100.00;99882.64;1710687;82;20959;-65
2022/06/16 01:19:33;;;;;;;3.85;2.12;;;;;;;11.83;100.00;99892.20;1698597;82;20998;-65
2022/06/16 01:22:05;;;;;;;3.55;1.40;;;;;;;11.85;100.00;99883.19;1701633;82;21079;-66
2022/06/16 01:25:06;;;;;;;2.70;1.55;;;;;;;11.89;100.00;99885.64;1707654;82;20990;-66
2022/06/16 01:28:00;;;;;;;4.25;1.67;;;;;;;11.95;100.00;99882.61;1705770;82;21491;-65
2022/06/16 01:30:35;;;;;;;3.70;1.60;;;;;;;11.96;100.00;99885.63;1704572;82;21530;-65
2022/06/16 01:33:13;;;;;;;4.10;1.60;;;;;;;11.94;100.00;99887.79;1659768;84;21122;-65
2022/06/16 01:36:10;;;;;;;2.37;1.32;;;;;;;12.00;100.00;99874.97;1694800;82;21292;-65
2022/06/16 01:38:58;;;;;;;5.12;1.90;;;;;;;12.10;100.00;99875.48;1670004;84;21008;-65
2022/06/16 01:41:42;;;;;;;3.85;1.85;;;;;;;12.18;100.00;99881.19;1631578;85;21158;-65
2022/06/16 01:44:33;;;;;;;4.72;1.80;;;;;;;12.22;100.00;99880.88;1678177;83;21033;-66
2022/06/16 01:47:09;;;;;;;5.30;2.15;;;;;;;12.27;100.00;99887.69;1694476;82;21076;-65
2022/06/16 01:49:40;;;;;;;3.62;1.77;;;;;;;12.30;100.00;99880.30;1696571;82;21014;-65
2022/06/16 01:52:21;;;;;;;5.90;2.08;;;;;;;12.37;100.00;99875.91;1694159;82;21055;-65
2022/06/16 01:54:58;;;;;;;4.67;1.62;;;;;;;12.47;100.00;99882.67;1707365;82;21006;-65
2022/06/16 01:57:42;;;;;;;3.65;1.80;;;;;;;12.54;100.00;99873.63;1671933;84;21612;-65
2022/06/16 02:00:18;;;;;;;5.30;2.30;;;;;;;12.58;100.00;99879.34;1641160;85;21484;-65
2022/06/16 02:03:31;;;;;;;4.87;1.80;;;;;;;12.55;100.00;99881.28;1641137;85;21034;-64
2022/06/16 02:06:05;;;;;;;3.72;1.72;;;;;;;12.52;100.00;99879.93;1701058;82;21021;-65
2022/06/16 02:08:41;;;;;;;4.67;1.87;;;;;;;12.55;100.00;99886.73;1683489;83;21089;-65
2022/06/16 02:11:23;;;;;;;5.70;2.12;;;;;;;12.55;100.00;99880.73;1712670;82;21090;-65
2022/06/16 02:14:04;;;;;;;5.10;2.33;;;;;;;12.53;100.00;99889.77;1706635;82;21473;-65
2022/06/16 02:16:31;;;;;;;4.80;2.00;;;;;;;12.44;100.00;99885.97;1699505;82;21030;-65
2022/06/16 02:18:58;;;;;;;4.65;2.22;;;;;;;12.43;100.00;99881.05;1706757;82;20984;-65
2022/06/16 02:21:33;;;;;;;;;;;;;;;12.47;100.00;99888.95;1705822;81;21047;-65
2022/06/16 02:24:02;;;;;;;4.35;1.98;;;;;;;12.51;100.00;99883.75;1698529;82;20125;-64
2022/06/16 02:26:28;;;;;;;4.10;2.05;;;;;;;12.52;100.00;99893.59;1654885;84;21526;-64
2022/06/16 02:28:57;;;;;;;;;;;;;;;12.55;100.00;99897.66;1677119;84;21074;-65
2022/06/16 02:31:41;;;;;;;5.10;2.15;;;;;;;12.56;100.00;99906.95;1680031;83;20390;-65
2022/06/16 02:34:58;;;;;;;4.87;2.22;;;;;;;12.50;100.00;99900.44;1614699;85;21027;-65
2022/06/16 02:38:01;;;;;;;2.62;1.70;;;;;;;12.51;100.00;99909.69;1699729;82;21102;-65
2022/06/16 02:40:39;;;;;;;3.08;1.90;;;;;;;12.49;100.00;99905.07;1708448;83;21013;-66
2022/06/16 02:43:26;;;;;;;4.15;2.20;;;;;;;12.46;100.00;99910.55;1706338;82;21025;-65
2022/06/16 02:46:13;;;;;;;;;;;;;;;12.47;100.00;99915.44;1705079;82;21005;-65
2022/06/16 02:49:10;;;;;;;4.58;2.30;;;;;;;12.53;100.00;99918.44;1706510;82;20407;-65
2022/06/16 02:51:46;;;;;;;8.13;1.92;;;;;;;12.59;100.00;99920.59;1699925;82;21063;-65
2022/06/16 02:54:27;;;;;;;3.33;2.08;;;;;;;12.74;100.00;99919.97;1706221;82;21032;-66
2022/06/16 03:00:14;;;;;;;4.70;2.10;;;;;;;13.25;100.00;99911.48;1810589;78;22928;-64
2022/06/16 03:02:41;;;;;;;5.47;2.08;;;;;;;13.34;100.00;99911.95;1772570;78;21060;-64
2022/06/16 03:05:10;;;;;;;4.70;2.22;;;;;;;13.42;100.00;99911.34;1779656;78;20929;-64
2022/06/16 03:07:39;;;;;;;5.50;1.92;;;;;;;13.53;100.00;99916.73;1787204;78;21030;-67
2022/06/16 03:13:09;;;;;;;4.37;2.20;;;;;;;14.00;100.00;99905.03;1789849;78;20984;-67
2022/06/16 03:15:37;;;;;;;3.50;1.92;;;;;;;14.28;100.00;99904.16;1771913;78;21555;-66
2022/06/16 03:18:03;;;;;;;6.30;2.37;;;;;;;14.51;100.00;99902.56;1776181;79;21055;-66
2022/06/16 03:20:30;;;;;;;;;;;;;;;14.84;100.00;99905.11;1786877;79;21008;-66
2022/06/16 03:22:58;;;;;;;4.03;1.90;;;;;;;15.19;100.00;99896.94;1800604;78;20112;-64
2022/06/16 03:25:24;;;;;;;6.35;2.58;;;;;;;15.39;100.00;99890.30;1781089;78;20965;-65
2022/06/16 03:27:55;;;;;;;4.83;2.17;;;;;;;15.64;100.00;99898.69;1776424;79;21017;-65
2022/06/16 03:30:22;;;;;;;5.70;2.10;;;;;;;15.84;100.00;99894.19;1793543;78;20980;-65
2022/06/16 03:32:49;;;;;;;3.27;1.90;;;;;;;16.04;100.00;99893.02;1786715;78;21049;-66
2022/06/16 03:35:18;;;;;;;4.87;2.20;;;;;;;16.33;100.00;99886.67;1785088;78;20959;-66
2022/06/16 03:37:45;;;;;;;3.72;2.05;;;;;;;16.54;100.00;99887.06;1750748;79;21082;-66
2022/06/16 03:40:13;;;;;;;4.25;2.20;;;;;;;16.74;100.00;99884.71;1783824;78;21011;-65
2022/06/16 03:42:40;;;;;;;5.92;1.90;;;;;;;16.84;100.00;99884.48;1774527;79;21050;-65
2022/06/16 03:45:09;;;;;;;4.55;1.55;;;;;;;16.97;100.00;99888.89;1780778;79;21453;-65
2022/06/16 03:47:36;;;;;;;3.77;1.87;;;;;;;17.14;100.00;99874.72;1755088;80;21420;-66
2022/06/16 03:50:03;;;;;;;5.33;1.82;;;;;;;17.29;100.00;99878.45;1787898;79;21494;-65
2022/06/16 03:52:32;;;;;;;4.83;1.82;;;;;;;17.43;100.00;99878.98;1799944;78;21028;-65
2022/06/16 03:55:00;;;;;;;4.28;1.80;;;;;;;17.56;100.00;99887.19;1795416;79;21026;-66
2022/06/16 03:57:27;;;;;;;5.28;1.90;;;;;;;17.78;100.00;99884.39;1794540;78;20988;-64
2022/06/16 03:59:55;;;;;;;3.95;1.60;;;;;;;18.09;100.00;99881.64;1764328;78;21019;-66
2022/06/16 04:02:26;;;;;;;4.85;2.20;;;;;;;18.26;100.00;99880.33;1750193;79;20980;-65
2022/06/16 04:04:52;;;;;;;4.22;1.55;;;;;;;18.37;100.00;99879.47;1774788;79;21786;-66
2022/06/16 04:07:19;;;;;;;3.37;1.90;;;;;;;18.37;100.00;99881.66;1762889;79;21388;-69
2022/06/16 04:09:56;;;;;;;4.75;1.87;;;;;;;18.35;100.00;99873.48;1775236;79;21526;-68
2022/06/16 04:12:23;;;;;;;4.60;2.00;;;;;;;18.32;100.00;99877.66;1767574;79;20969;-68
2022/06/16 04:14:50;;;;;;;3.60;2.05;;;;;;;18.53;100.00;99886.77;1789531;79;21010;-70
2022/06/16 04:17:18;;;;;;;6.12;2.12;;;;;;;18.75;100.00;99883.88;1756060;79;20980;-66
2022/06/16 04:22:36;;;;;;;5.12;2.10;;;;;;;18.68;100.00;99888.49;1722841;80;21044;-63
2022/06/16 04:25:13;;;;;;;4.42;1.75;;;;;;;18.79;100.00;99887.05;1757702;79;21554;-66
2022/06/16 04:27:42;;;;;;;3.20;1.67;;;;;;;19.08;100.00;99882.86;1673076;82;21067;-64
2022/06/16 04:30:13;;;;;;;6.30;1.80;;;;;;;19.36;100.00;99876.69;1774128;79;21488;-64
2022/06/16 04:32:39;;;;;;;4.75;1.80;;;;;;;19.51;100.00;99878.73;1753319;80;21028;-63
2022/06/16 04:35:09;;;;;;;3.47;1.57;;;;;;;19.55;100.00;99886.03;1760618;79;21019;-65
2022/06/16 04:37:47;;;;;;;4.47;1.62;;;;;;;19.55;100.00;99876.94;1752355;80;21087;-63
2022/06/16 04:40:13;;;;;;;5.10;1.90;;;;;;;19.71;100.00;99878.84;1765220;79;21019;-65
2022/06/16 04:42:43;;;;;;;3.90;1.50;;;;;;;19.87;100.00;99883.28;1776291;79;21082;-67
2022/06/16 04:45:11;;;;;;;3.27;1.57;;;;;;;20.15;100.00;99881.72;1783096;79;21578;-66
2022/06/16 04:47:38;;;;;;;4.47;1.57;;;;;;;20.43;100.00;99881.28;1768884;79;20988;-67
2022/06/16 04:50:07;;;;;;;4.65;1.70;;;;;;;20.41;100.00;99884.94;1704190;82;20969;-66
2022/06/16 04:52:36;;;;;;;5.20;1.55;;;;;;;20.66;100.00;99883.41;1788672;79;21091;-68
2022/06/16 04:55:04;;;;;;;3.12;1.40;;;;;;;21.12;100.00;99883.84;1772110;79;21036;-69
2022/06/16 04:57:46;;;;;;;2.75;1.27;;;;;;;21.25;100.00;99881.97;1694180;80;21036;-69
2022/06/16 05:00:24;;;;;;;3.52;1.30;;;;;;;21.65;100.00;99880.26;1721759;80;21050;-67
2022/06/16 05:02:58;;;;;;;2.42;1.20;;;;;;;21.65;100.00;99880.26;1756716;81;21627;-67
2022/06/16 05:05:26;;;;;;;5.42;1.27;;;;;;;21.86;100.00;99880.19;1771436;79;21051;-69
2022/06/16 05:07:58;;;;;;;3.15;1.20;;;;;;;21.87;100.00;99885.98;1770449;79;21044;-67
2022/06/16 05:10:26;;;;;;;4.03;1.45;;;;;;;21.87;100.00;99885.16;1769839;79;21986;-68
2022/06/16 05:13:03;;;;;;;4.40;1.12;;;;;;;21.81;100.00;99882.62;1718690;82;21043;-68
2022/06/16 05:15:35;;;;;;;2.75;1.05;;;;;;;21.71;100.00;99884.45;1751943;80;21633;-68
2022/06/16 05:18:12;;;;;;;3.85;1.15;;;;;;;21.90;100.00;99889.47;1766063;79;21119;-66
2022/06/16 05:20:43;;;;;;;3.50;1.30;;;;;;;22.38;100.00;99889.31;1766005;79;21632;-66
2022/06/16 05:23:15;;;;;;;5.62;1.27;;;;;;;22.74;100.00;99891.50;1744638;79;21071;-67
2022/06/16 05:26:00;;;;;;;5.05;1.30;;;;;;;22.90;99.25;99890.22;1786208;79;21078;-67
2022/06/16 05:28:37;;;;;;;2.98;1.10;;;;;;;23.29;100.00;99894.98;1767985;79;21697;-67
2022/06/16 05:31:09;;;;;;;3.52;1.10;;;;;;;23.56;96.36;99888.44;1762832;79;21522;-64
2022/06/16 05:33:55;;;;;;;4.53;1.20;;;;;;;23.59;95.52;99883.55;1750687;79;21083;-68
2022/06/16 05:36:25;;;;;;;5.42;1.20;;;;;;;23.49;93.30;99886.23;1769666;80;21462;-72
2022/06/16 05:38:54;;;;;;;4.37;1.00;;;;;;;23.55;90.66;99886.23;1628979;83;21061;-70
2022/06/16 05:41:29;;;;;;;3.33;1.15;;;;;;;23.79;91.78;99876.95;1748147;79;21017;-71
2022/06/16 05:44:03;;;;;;;2.20;0.90;;;;;;;24.01;88.57;99879.14;1792190;79;21056;-72
2022/06/16 05:46:46;;;;;;;3.05;0.82;;;;;;;23.93;85.02;99884.86;1764608;79;21483;-67
2022/06/16 05:49:15;;;;;;;3.62;1.00;;;;;;;23.76;86.83;99889.59;1777003;79;21064;-71
2022/06/16 05:51:43;;;;;;;3.42;1.20;;;;;;;24.09;91.08;99885.70;1760656;79;20988;-68
2022/06/16 05:54:12;;;;;;;2.20;0.90;;;;;;;24.65;84.59;99882.14;1765896;79;21252;-70
2022/06/16 05:56:41;;;;;;;3.37;0.93;;;;;;;24.77;78.71;99887.57;1702682;83;21068;-71
2022/06/16 05:59:08;;;;;;;2.65;1.02;;;;;;;25.02;79.61;99891.77;1779232;79;21663;-72
2022/06/16 06:01:38;;;;;;;1.92;0.90;;;;;;;25.21;71.84;99888.20;1767757;79;20996;-70
2022/06/16 06:04:06;;;;;;;2.50;1.00;;;;;;;25.15;75.87;99891.84;1772870;80;21068;-71
2022/06/16 06:06:34;;;;;;;1.87;0.90;;;;;;;25.12;73.76;99893.16;1770449;79;20965;-71
2022/06/16 06:17:20;;;;;;;2.60;0.85;;;;;;;25.93;64.95;99885.68;1754361;81;20943;-68
2022/06/16 06:19:48;;;;;;;2.75;1.00;;;;;;;25.93;63.11;99891.26;1770270;80;21472;-67
2022/06/16 06:22:19;;;;;;;2.62;0.72;;;;;;;25.82;62.22;99891.06;1764158;80;21523;-68
2022/06/16 06:24:58;;;;;;;3.35;0.78;;;;;;;25.80;63.41;99894.79;1757964;79;21019;-68
2022/06/16 06:27:42;;;;;;;3.10;0.60;;;;;;;25.50;60.83;99890.41;1718946;82;21720;-66
2022/06/16 06:30:20;;;;;;;3.02;0.70;;;;;;;25.33;64.46;99889.43;1719610;82;21092;-68
2022/06/16 06:32:47;;;;;;;2.00;0.70;;;;;;;25.51;70.74;99889.23;1762101;81;21087;-69
2022/06/16 06:35:19;;;;;;;2.42;0.60;;;;;;;26.10;67.78;99887.97;1757038;81;21056;-70
2022/06/16 06:37:46;;;;;;;3.15;0.88;;;;;;;26.67;64.85;99879.39;1760020;81;21043;-67
2022/06/16 06:40:23;;;;;;;2.80;0.90;;;;;;;26.84;57.67;99889.23;1737630;81;21593;-65
2022/06/16 06:42:50;;;;;;;2.12;0.80;;;;;;;26.61;56.17;99889.84;1757589;80;21126;-65
2022/06/16 06:45:17;;;;;;;2.05;0.65;;;;;;;26.39;59.40;99896.28;1762433;79;21530;-67
2022/06/16 06:47:47;;;;;;;1.25;0.60;;;;;;;26.36;56.70;99892.84;1775254;81;21079;-66
2022/06/16 06:50:25;;;;;;;2.42;0.78;;;;;;;26.53;56.55;99883.36;1760744;80;21036;-70
2022/06/16 06:52:52;;;;;;;2.17;0.65;;;;;;;26.72;54.93;99888.02;1768060;79;21086;-68
2022/06/16 06:55:19;;;;;;;2.17;0.70;;;;;;;26.66;54.22;99894.53;1771336;79;21162;-67
2022/06/16 06:57:45;;;;;;;2.70;0.70;;;;;;;26.59;54.33;99883.83;1765422;81;21517;-68
2022/06/16 07:00:16;;;;;;;3.37;0.80;;;;;;;26.78;52.82;99890.72;1763376;79;21044;-69
2022/06/16 07:02:42;;;;;;;1.57;0.50;;;;;;;26.82;52.50;99881.00;1773595;79;21043;-70
2022/06/16 07:05:09;;;;;;;1.87;0.57;;;;;;;26.90;51.50;99879.93;1766451;79;20996;-68
2022/06/16 07:07:37;;;;;;;2.83;0.70;;;;;;;26.74;49.13;99882.88;1755551;80;21107;-70
2022/06/16 07:10:06;;;;;;;2.33;0.50;;;;;;;26.36;48.61;99878.89;1759940;79;21038;-71
2022/06/16 07:12:34;;;;;;;1.75;0.65;;;;;;;26.21;50.66;99873.08;1777881;79;21055;-72
2022/06/16 07:15:00;;;;;;;0.90;0.30;;;;;;;26.11;51.81;99877.05;1767403;79;21048;-71
2022/06/16 07:17:27;;;;;;;2.35;0.50;;;;;;;26.21;50.64;99877.84;1764871;79;20960;-69
2022/06/16 07:19:54;;;;;;;1.65;0.50;;;;;;;26.53;50.58;99877.78;1708037;82;21562;-69
2022/06/16 07:22:20;;;;;;;1.55;0.40;;;;;;;27.11;50.24;99871.25;1760633;79;21506;-68
2022/06/16 07:24:48;;;;;;;1.02;0.30;;;;;;;27.68;48.26;99871.37;1756753;79;21051;-71
2022/06/16 07:27:18;;;;;;;1.02;0.33;;;;;;;27.63;45.49;99868.91;1764523;79;21535;-70
2022/06/16 07:29:49;;;;;;;2.92;0.50;;;;;;;27.21;43.43;99875.36;1701005;82;21079;-70
2022/06/16 07:32:14;;;;;;;1.20;0.50;;;;;;;26.94;45.07;99873.81;1762638;81;21087;-69
2022/06/16 07:34:41;;;;;;;1.75;0.50;;;;;;;26.63;43.78;99867.95;1757296;80;21146;-68
2022/06/16 07:37:07;;;;;;;3.20;0.60;;;;;;;26.09;45.33;99864.84;1778762;79;21451;-70
2022/06/16 07:41:31;;;;;;;;;;;;;;;26.31;48.50;99866.64;1799484;78;23436;-67
2022/06/16 07:43:59;;;;;;;1.40;0.50;;;;;;;26.25;47.36;99864.77;1753173;81;20105;-65
2022/06/16 07:46:25;;;;;;;1.37;0.50;;;;;;;25.55;47.31;99864.23;1756868;80;21837;-66
2022/06/16 07:48:53;;;;;;;1.35;0.60;;;;;;;25.07;46.83;99863.64;1726414;82;21530;-65
2022/06/16 07:51:19;;;;;;;1.32;0.50;;;;;;;24.80;51.30;99871.53;1703104;83;21130;-67
2022/06/16 07:53:48;;;;;;;2.35;0.72;;;;;;;24.89;55.37;99865.80;1702669;84;21137;-67
2022/06/16 07:56:14;;;;;;;1.77;0.65;;;;;;;25.26;55.53;99869.20;1699767;83;21644;-66
2022/06/16 07:58:43;;;;;;;1.98;0.57;;;;;;;25.80;53.49;99865.52;1693632;83;20997;-66
2022/06/16 08:01:10;;;;;;;1.22;0.50;;;;;;;26.54;50.72;99854.24;1717586;81;21594;-66
2022/06/16 08:03:36;;;;;;;2.60;0.70;;;;;;;27.13;50.56;99855.52;1724067;81;21022;-68
2022/06/16 08:06:13;;;;;;;2.17;0.60;;;;;;;27.68;47.25;99857.40;1720271;81;21602;-66
2022/06/16 08:08:40;;;;;;;3.33;0.50;;;;;;;28.25;44.05;99850.16;1718615;81;21338;-68
2022/06/16 08:12:03;;;;;;;1.80;0.60;;;;;;;27.98;43.30;99862.91;1723747;81;21043;-68
2022/06/16 08:13:35;;;;;;;4.62;0.88;;;;;;;27.17;43.47;99863.36;1694158;83;21115;-69
2022/06/16 08:16:03;;;;;;;1.20;0.53;;;;;;;26.43;43.77;99866.45;1724335;81;20997;-68
2022/06/16 08:18:30;;;;;;;1.87;0.50;;;;;;;25.80;44.34;99855.75;1720810;81;21439;-67
2022/06/16 08:20:56;;;;;;;3.33;0.50;;;;;;;25.21;44.94;99856.16;1700262;83;20994;-67
2022/06/16 08:23:25;;;;;;;4.00;0.60;;;;;;;24.77;47.46;99861.94;1700615;83;20999;-68
2022/06/16 08:25:51;;;;;;;2.72;0.50;;;;;;;24.54;48.32;99856.84;1690637;84;21595;-67
2022/06/16 08:28:18;;;;;;;3.00;0.80;;;;;;;24.54;50.29;99860.20;1684601;83;21423;-67
2022/06/16 08:30:45;;;;;;;2.17;0.55;;;;;;;24.76;51.59;99851.97;1703484;83;21078;-65
2022/06/16 08:33:14;;;;;;;3.75;0.75;;;;;;;25.16;52.91;99854.47;1729572;81;21043;-65
2022/06/16 08:35:44;;;;;;;4.20;0.70;;;;;;;25.39;48.27;99859.31;1728947;81;21051;-66
2022/06/16 08:38:10;;;;;;;4.62;0.50;;;;;;;25.10;46.81;99851.76;1727557;81;20998;-65
2022/06/16 08:40:44;;;;;;;1.90;0.60;;;;;;;24.85;49.77;99853.77;1715955;82;21107;-66
2022/06/16 08:43:30;;;;;;;1.50;0.70;;;;;;;24.92;49.08;99851.96;1669310;84;21073;-66
2022/06/16 08:46:01;;;;;;;1.95;0.60;;;;;;;24.94;49.29;99854.39;1713146;82;21062;-66
2022/06/16 08:48:58;;;;;;;6.60;0.60;;;;;;;24.87;49.79;99850.06;1684867;83;21019;-68
2022/06/16 08:51:33;;;;;;;1.85;0.50;;;;;;;24.84;49.32;99844.61;1693875;83;21051;-66
2022/06/16 08:54:34;;;;;;;2.30;0.70;;;;;;;24.56;50.08;99853.09;1672078;85;21091;-66
2022/06/16 08:57:23;;;;;;;1.60;0.68;;;;;;;24.35;49.83;99852.59;1683173;84;21091;-64
2022/06/16 08:59:58;;;;;;;2.80;0.70;;;;;;;24.21;55.70;99856.41;1704629;84;21067;-66
2022/06/16 09:02:53;;;;;;;2.37;0.70;;;;;;;24.12;55.54;99859.37;1680112;83;21106;-66
2022/06/16 09:05:49;;;;;;;1.55;0.60;;;;;;;23.98;56.87;99855.41;1690767;84;21601;-66
2022/06/16 09:08:36;;;;;;;2.08;0.60;;;;;;;23.84;55.45;99857.24;1690705;84;20991;-64
2022/06/16 09:11:28;;;;;;;2.25;0.57;;;;;;;23.75;55.80;99854.62;1645755;83;21127;-64
2022/06/16 09:14:19;;;;;;;1.80;0.60;;;;;;;23.89;54.40;99858.35;1694611;83;20978;-65
2022/06/16 09:17:03;;;;;;;3.02;0.75;;;;;;;23.73;53.74;99854.76;1666570;84;21585;-65
2022/06/16 09:20:02;;;;;;;3.17;0.60;;;;;;;23.71;53.23;99854.29;1688287;84;21063;-66
2022/06/16 09:22:47;;;;;;;1.32;0.60;;;;;;;23.80;57.45;99854.95;1695435;83;21937;-65
2022/06/16 09:25:39;;;;;;;2.55;0.55;;;;;;;23.89;55.75;99845.03;1693017;84;21045;-65
2022/06/16 09:28:19;;;;;;;3.42;0.72;;;;;;;23.86;52.42;99852.12;1690152;84;21123;-65
2022/06/16 09:30:48;;;;;;;1.37;0.60;;;;;;;23.94;58.71;99849.76;1706317;84;21033;-65
2022/06/16 09:33:21;;;;;;;1.30;0.60;;;;;;;24.09;57.91;99855.11;1687312;84;21030;-66
2022/06/16 09:36:01;;;;;;;6.08;0.70;;;;;;;24.13;55.91;99848.47;1685974;83;21046;-66
2022/06/16 09:38:51;;;;;;;1.42;0.60;;;;;;;24.03;54.82;99850.95;1689557;82;21108;-64
2022/06/16 09:44:29;;;;;;;2.35;0.60;;;;;;;23.99;53.38;99854.22;1680920;84;20988;-65
2022/06/16 09:46:59;;;;;;;5.50;1.00;;;;;;;24.00;53.12;99856.66;1685709;84;21058;-63
2022/06/16 09:49:34;;;;;;;1.72;0.68;;;;;;;23.96;53.08;99853.55;1685266;84;21007;-64
2022/06/16 09:52:09;;;;;;;3.55;0.50;;;;;;;23.97;51.70;99855.98;1681730;84;21529;-63
2022/06/16 09:54:43;;;;;;;1.90;0.60;;;;;;;23.84;54.32;99855.04;1685451;84;21582;-64
2022/06/16 09:57:30;;;;;;;1.32;0.57;;;;;;;23.89;52.18;99854.19;1698011;83;21035;-64
2022/06/16 10:00:05;;;;;;;1.75;0.50;;;;;;;23.93;54.75;99851.49;1695318;84;21486;-65
2022/06/16 10:02:39;;;;;;;2.22;0.50;;;;;;;23.89;53.81;99850.02;1694415;84;21623;-65
2022/06/16 10:05:19;;;;;;;4.25;1.07;;;;;;;23.94;55.50;99851.73;1676958;84;21091;-65
2022/06/16 10:07:54;;;;;;;2.45;1.02;;;;;;;23.91;52.95;99850.48;1674811;84;21079;-65
2022/06/16 10:10:32;;;;;;;1.90;0.55;;;;;;;23.93;54.69;99853.70;1674722;84;21526;-63
2022/06/16 10:13:25;;;;;;;5.33;0.95;;;;;;;24.07;54.76;99851.28;1693790;83;21135;-65
2022/06/16 10:16:15;;;;;;;4.10;0.78;;;;;;;24.21;50.65;99850.85;1677383;85;21095;-65
2022/06/16 10:18:42;;;;;;;2.98;0.50;;;;;;;24.27;50.72;99843.84;1690525;83;21103;-63
2022/06/16 10:21:09;;;;;;;1.42;0.50;;;;;;;24.30;51.98;99837.58;1689644;83;21528;-65
2022/06/16 10:23:49;;;;;;;1.90;0.50;;;;;;;24.18;52.31;99842.66;1689484;85;21022;-65
2022/06/16 10:26:16;;;;;;;2.10;0.70;;;;;;;24.11;57.26;99839.66;1681908;84;21106;-65
2022/06/16 10:29:00;;;;;;;3.40;0.70;;;;;;;24.09;55.46;99839.20;1692980;83;21038;-65
2022/06/16 10:31:45;;;;;;;2.40;0.53;;;;;;;24.14;52.99;99837.58;1671113;84;21549;-64
2022/06/16 10:34:38;;;;;;;3.67;0.50;;;;;;;24.13;50.36;99829.59;1675427;84;20995;-65
2022/06/16 10:37:22;;;;;;;3.02;0.68;;;;;;;23.92;52.38;99824.84;1692871;83;21749;-64
2022/06/16 10:39:57;;;;;;;2.17;0.68;;;;;;;23.74;51.09;99825.78;1681586;83;21518;-64
2022/06/16 10:42:35;;;;;;;2.40;0.62;;;;;;;23.54;54.92;99819.89;1697148;83;21539;-65
2022/06/16 10:45:05;;;;;;;2.12;0.60;;;;;;;23.67;58.61;99818.64;1693482;84;21147;-64
2022/06/16 10:48:03;;;;;;;3.47;0.70;;;;;;;23.94;61.66;99815.01;1699851;83;21064;-63
2022/06/16 10:50:41;;;;;;;2.77;0.80;;;;;;;24.53;54.82;99809.88;1697788;83;21042;-62
2022/06/16 10:53:27;;;;;;;2.90;0.50;;;;;;;24.53;54.82;99809.88;1694546;83;21057;-65
2022/06/16 10:56:03;;;;;;;1.67;0.62;;;;;;;24.74;54.75;99818.13;1697668;83;21470;-65
2022/06/16 10:58:33;;;;;;;1.80;0.65;;;;;;;24.92;52.59;99812.16;1686560;84;21074;-64
2022/06/16 11:01:19;;;;;;;3.02;0.70;;;;;;;25.08;49.62;99806.73;1669386;83;21038;-63
2022/06/16 11:03:50;;;;;;;1.82;0.53;;;;;;;25.14;50.10;99810.05;1699742;83;22066;-63
2022/06/16 11:06:22;;;;;;;1.90;0.53;;;;;;;25.23;51.16;99810.04;1691367;84;21088;-65
2022/06/16 11:08:58;;;;;;;3.42;0.95;;;;;;;25.33;51.11;99817.59;1693919;84;20989;-64
2022/06/16 11:11:52;;;;;;;1.47;0.50;;;;;;;25.40;49.86;99814.34;1682412;83;21028;-64
2022/06/16 11:14:21;;;;;;;2.62;0.50;;;;;;;25.51;48.92;99808.41;1697832;83;21037;-66
2022/06/16 11:16:51;;;;;;;3.72;0.70;;;;;;;25.36;47.72;99811.28;1697800;84;21595;-65
2022/06/16 11:19:33;;;;;;;0.82;0.40;;;;;;;25.05;46.48;99810.84;1691724;84;21159;-65
2022/06/16 11:22:03;;;;;;;1.92;0.62;;;;;;;24.87;46.37;99809.08;1693789;83;21099;-65
2022/06/16 11:24:32;;;;;;;2.12;0.78;;;;;;;24.75;44.72;99802.23;1698250;84;21031;-63
2022/06/16 11:27:12;;;;;;;3.02;0.60;;;;;;;24.78;46.96;99808.47;1673930;84;21063;-64
2022/06/16 11:29:39;;;;;;;2.52;0.62;;;;;;;24.96;47.48;99792.98;1697392;84;20994;-65
2022/06/16 11:32:19;;;;;;;1.65;0.45;;;;;;;25.18;50.48;99787.26;1671807;84;21075;-67
2022/06/16 11:34:47;;;;;;;1.85;0.60;;;;;;;25.38;44.05;99793.59;1696171;84;21043;-67
2022/06/16 11:37:25;;;;;;;1.47;0.60;;;;;;;25.35;43.58;99790.97;1692591;84;21092;-65
2022/06/16 11:40:09;;;;;;;2.92;0.50;;;;;;;25.31;42.67;99791.48;1679391;83;21078;-63
2022/06/16 11:43:08;;;;;;;1.90;0.80;;;;;;;25.14;45.29;99789.16;1696530;83;21590;-67
2022/06/16 11:45:47;;;;;;;1.45;0.50;;;;;;;24.98;42.79;99793.98;1666943;84;21094;-68
2022/06/16 11:48:50;;;;;;;2.12;0.55;;;;;;;24.83;43.35;99785.11;1696392;84;21063;-64
2022/06/16 11:51:40;;;;;;;4.70;0.70;;;;;;;24.80;45.39;99781.05;1667790;85;21267;-65
2022/06/16 11:54:25;;;;;;;2.47;0.50;;;;;;;24.93;47.40;99786.75;1698104;84;21508;-65
2022/06/16 11:57:11;;;;;;;0.65;0.30;;;;;;;25.20;45.81;99791.86;1680810;84;21117;-65
2022/06/16 11:59:55;;;;;;;2.05;0.50;;;;;;;25.37;42.81;99781.64;1696771;84;21014;-65
2022/06/16 12:02:51;;;;;;;2.70;0.42;;;;;;;25.38;43.21;99786.63;1697241;83;21078;-62
2022/06/16 12:05:42;;;;;;;3.72;0.60;;;;;;;25.33;44.08;99786.34;1696248;83;21036;-65
2022/06/16 12:08:52;;;;;;;3.70;0.70;;;;;;;25.30;41.65;99784.30;1693556;83;21110;-65
2022/06/16 12:11:45;;;;;;;1.92;0.70;;;;;;;25.15;41.67;99782.42;1685361;82;21055;-65
2022/06/16 12:14:23;;;;;;;3.27;0.85;;;;;;;25.04;41.29;99775.25;1679417;84;21027;-67
2022/06/16 12:17:09;;;;;;;2.27;0.53;;;;;;;25.01;41.49;99780.13;1642602;84;21058;-65
2022/06/16 12:19:47;;;;;;;1.90;0.50;;;;;;;24.93;44.30;99774.22;1672635;85;20984;-66
2022/06/16 12:22:24;;;;;;;2.62;0.60;;;;;;;25.00;45.13;99774.95;1686132;84;21488;-67
2022/06/16 12:25:17;;;;;;;2.58;0.60;;;;;;;25.10;42.99;99772.37;1687593;84;21003;-68
2022/06/16 12:27:53;;;;;;;1.40;0.50;;;;;;;25.18;41.87;99763.00;1699158;84;21576;-65
2022/06/16 12:30:40;;;;;;;1.85;0.60;;;;;;;25.29;44.14;99756.82;1702084;83;21848;-65
2022/06/16 12:36:11;;;;;;;1.35;0.40;;;;;;;25.46;41.02;99755.75;1804506;78;22694;-62
2022/06/16 12:46:40;;;;;;;1.22;0.57;;;;;;;25.39;42.31;99745.06;1780418;79;22653;-63